Time;durP1;ratioP1;P1;durP2;ratioP2;P2;SDS_P1;SDS_P2;PMS_P1;PMS_P2;Temp;Humidity;BMP_temperature;BMP_pressure;BME280_temperature;BME280_humidity;BME280_pressure;Samples;Min_cycle;Max_cycle;Signal;HPM_P1;HPM_P2
2023/04/05 05:55:13;;;;;;;;;38.75;35.25;;;;;3.29;61.29;101975.09;6124720;22;1391072;-74
2023/04/05 05:57:38;;;;;;;;;41.75;37.25;;;;;3.31;62.07;101975.22;6270473;22;45455;-73
2023/04/05 06:00:08;;;;;;;;;48.00;39.25;;;;;3.23;60.97;101963.31;6275718;22;45394;-75
2023/04/05 06:02:34;;;;;;;;;43.75;30.00;;;;;3.23;59.40;101965.91;6276681;22;46151;-73
2023/04/05 06:05:00;;;;;;;;;42.00;38.50;;;;;3.08;58.83;101940.50;6248829;22;45241;-74
2023/04/05 06:07:26;;;;;;;;;43.75;37.00;;;;;3.32;59.10;101970.09;6276395;22;45483;-73
2023/04/05 06:09:51;;;;;;;;;44.00;35.00;;;;;3.33;60.91;101978.84;6248171;22;45930;-75
2023/04/05 06:12:17;;;;;;;;;40.25;34.25;;;;;3.19;61.59;101951.69;6277588;22;45406;-75
2023/04/05 06:14:42;;;;;;;;;38.75;33.50;;;;;3.39;60.79;101989.75;6277464;22;45251;-75
2023/04/05 06:17:07;;;;;;;;;49.33;39.33;;;;;3.29;60.94;101966.34;6277235;22;45203;-74
2023/04/05 06:19:33;;;;;;;;;42.25;38.25;;;;;3.10;61.84;101924.91;6277256;22;45379;-74
2023/04/05 06:21:59;;;;;;;;;56.00;43.00;;;;;3.33;60.76;101960.53;6274656;22;45563;-74
2023/04/05 06:24:26;;;;;;;;;38.75;36.25;;;;;3.51;61.71;101988.00;6277126;22;45277;-73
2023/04/05 06:26:51;;;;;;;;;43.67;39.00;;;;;3.43;61.06;101964.75;6276473;22;45209;-74
2023/04/05 06:29:16;;;;;;;;;45.25;36.00;;;;;3.34;61.01;101944.09;6276998;22;45112;-74
2023/04/05 06:31:42;;;;;;;;;45.00;38.00;;;;;3.40;62.10;101948.84;6276950;22;46742;-74
2023/04/05 06:34:07;;;;;;;;;50.50;39.25;;;;;3.39;59.81;101941.78;6249312;22;45284;-74
2023/04/05 06:36:33;;;;;;;;;41.25;36.75;;;;;3.74;59.79;101992.25;6277831;22;45825;-74
2023/04/05 06:38:58;;;;;;;;;46.25;40.75;;;;;3.74;59.83;101966.09;6277874;22;45076;-74
2023/04/05 06:41:24;;;;;;;;;40.25;33.00;;;;;3.97;58.41;101983.41;6277218;22;45124;-74
2023/04/05 06:43:49;;;;;;;;;52.50;40.25;;;;;3.99;60.36;101967.84;6277893;22;45170;-74
2023/04/05 06:46:15;;;;;;;;;55.67;41.00;;;;;4.22;60.79;101985.13;6275680;22;45118;-73
2023/04/05 06:48:41;;;;;;;;;46.75;38.50;;;;;4.15;60.73;101935.78;6275329;22;45374;-74
2023/04/05 06:51:06;;;;;;;;;57.75;46.00;;;;;4.58;58.59;101986.72;6249056;22;46763;-73
2023/04/05 06:53:31;;;;;;;;;54.67;44.33;;;;;4.70;60.32;101984.00;6277426;22;45233;-74
2023/04/05 06:55:58;;;;;;;;;41.75;37.25;;;;;4.87;57.84;101991.31;6274516;22;45251;-73
2023/04/05 06:58:25;;;;;;;;;37.25;34.25;;;;;4.85;58.87;101960.56;6276205;22;45273;-75
2023/04/05 07:00:50;;;;;;;;;53.50;41.00;;;;;5.15;58.25;101991.41;6276139;22;45327;-73
2023/04/05 07:03:17;;;;;;;;;50.25;40.75;;;;;5.33;58.85;101996.03;6276596;22;45256;-74
2023/04/05 07:05:50;;;;;;;;;49.75;37.75;;;;;5.52;57.26;102001.63;6277822;22;45429;-74
2023/04/05 07:08:17;;;;;;;;;45.75;41.25;;;;;5.66;57.15;101996.34;6276884;22;45198;-73
2023/04/05 07:10:42;;;;;;;;;47.75;40.00;;;;;5.58;56.77;101954.81;6277116;22;46459;-73
2023/04/05 07:13:07;;;;;;;;;42.75;35.75;;;;;5.87;55.41;101981.06;6277464;22;49746;-73
2023/04/05 07:15:33;;;;;;;;;43.00;37.25;;;;;6.02;56.18;101982.97;6277327;22;45244;-73
2023/04/05 07:17:58;;;;;;;;;35.25;31.00;;;;;5.93;55.83;101960.44;6248734;22;45647;-73
2023/04/05 07:20:23;;;;;;;;;46.00;35.25;;;;;6.30;56.09;102007.34;6247997;22;56662;-72
2023/04/05 07:22:49;;;;;;;;;34.25;28.50;;;;;6.09;55.74;101946.59;6249102;22;45127;-72
2023/04/05 07:25:14;;;;;;;;;48.00;35.75;;;;;6.40;54.89;101983.47;6248707;22;48818;-73
2023/04/05 07:27:39;;;;;;;;;48.00;36.00;;;;;6.66;55.21;102008.66;6277951;22;45083;-72
2023/04/05 07:30:06;;;;;;;;;53.75;38.75;;;;;6.76;54.68;102010.13;6276834;22;45215;-71
2023/04/05 07:32:33;;;;;;;;;41.25;37.25;;;;;6.91;54.48;102014.53;6276530;22;45184;-71
2023/04/05 07:34:58;;;;;;;;;46.00;38.25;;;;;6.94;54.11;101995.41;6277468;22;45241;-72
2023/04/05 07:37:24;;;;;;;;;42.50;37.25;;;;;7.14;54.00;101997.50;6277423;22;45216;-72
2023/04/05 07:39:49;;;;;;;;;38.50;34.00;;;;;7.27;53.10;101992.94;6276717;22;46229;-73
2023/04/05 07:42:16;;;;;;;;;42.25;36.00;;;;;7.54;53.07;101999.75;6276792;22;45243;-73
2023/04/05 07:44:41;;;;;;;;;45.00;36.00;;;;;7.65;52.81;101991.56;6276165;22;45405;-73
2023/04/05 07:47:07;;;;;;;;;46.00;37.00;;;;;7.68;53.02;101947.88;6276306;22;49611;-72
2023/04/05 07:49:32;;;;;;;;;39.75;37.25;;;;;7.92;51.99;101955.28;6247900;22;46243;-72
2023/04/05 07:51:58;;;;;;;;;44.00;34.50;;;;;8.19;51.12;101962.00;6276623;22;45273;-73
2023/04/05 07:54:23;;;;;;;;;45.50;38.25;;;;;8.56;50.95;101989.41;6249712;22;45193;-74
2023/04/05 07:56:50;;;;;;;;;35.00;33.75;;;;;8.06;50.66;101855.13;6277020;22;45228;-73
2023/04/05 07:59:16;;;;;;;;;44.00;35.00;;;;;8.87;51.91;101947.94;6277318;22;45336;-73
2023/04/05 08:01:41;;;;;;;;;43.75;36.50;;;;;9.32;51.49;101977.38;6248922;22;45328;-73
2023/04/05 08:04:06;;;;;;;;;43.00;35.00;;;;;9.39;49.20;101952.22;6277289;22;45160;-73
2023/04/05 08:06:31;;;;;;;;;46.75;37.25;;;;;9.72;47.61;101968.75;6276777;22;45145;-73
2023/04/05 08:08:57;;;;;;;;;40.50;34.25;;;;;10.07;48.61;101991.47;6277146;22;53154;-73
2023/04/05 08:11:22;;;;;;;;;48.25;36.00;;;;;10.29;47.54;101988.09;6247812;22;45207;-73
2023/04/05 08:13:48;;;;;;;;;43.25;36.25;;;;;10.28;44.47;101977.47;6277681;22;45173;-73
2023/04/05 08:16:13;;;;;;;;;45.75;35.50;;;;;10.38;46.64;101976.13;6272571;22;45862;-74
2023/04/05 08:18:38;;;;;;;;;32.50;29.50;;;;;10.60;44.50;101975.31;6273996;22;45342;-73
2023/04/05 08:21:04;;;;;;;;;40.75;34.50;;;;;10.91;45.68;101989.00;6273741;22;45335;-73
2023/04/05 08:23:30;;;;;;;;;40.25;32.75;;;;;10.70;44.48;101899.09;6274811;22;45407;-73
2023/04/05 08:25:56;;;;;;;;;42.00;34.50;;;;;11.41;48.56;101982.25;6273913;22;45478;-73
2023/04/05 08:28:21;;;;;;;;;43.00;35.00;;;;;11.59;46.71;101971.44;6274762;22;46266;-73
2023/04/05 08:30:47;;;;;;;;;41.00;35.25;;;;;11.99;45.87;101998.63;6245673;22;45258;-73
2023/04/05 08:33:12;;;;;;;;;41.25;34.75;;;;;12.06;42.71;101968.84;6274962;22;45609;-73
2023/04/05 08:35:38;;;;;;;;;34.75;28.25;;;;;11.89;44.81;101911.69;6274385;22;45415;-73
2023/04/05 08:38:05;;;;;;;;;43.00;34.50;;;;;12.26;41.93;101929.81;6276846;22;46113;-73
2023/04/05 08:40:39;;;;;;;;;34.00;30.50;;;;;12.76;42.29;101970.44;6246982;22;46018;-74
2023/04/05 08:43:31;;;;;;;;;37.00;32.50;;;;;13.21;44.91;101997.63;6274953;22;45476;-74
2023/04/05 08:45:58;;;;;;;;;29.50;28.00;;;;;13.47;44.83;101994.03;6258104;22;45497;-74
2023/04/05 08:48:26;;;;;;;;;36.25;30.25;;;;;13.58;38.18;101974.94;6274753;22;46345;-73
2023/04/05 08:50:53;;;;;;;;;50.75;43.25;;;;;13.96;41.88;101990.25;6246344;22;45385;-73
2023/04/05 08:53:19;;;;;;;;;35.75;32.25;;;;;14.02;39.20;101947.88;6274682;22;45679;-74
2023/04/05 08:55:50;;;;;;;;;42.00;35.25;;;;;14.43;40.27;101974.75;6273315;22;45358;-74
2023/04/05 08:58:15;;;;;;;;;39.75;33.25;;;;;14.70;37.32;101970.19;6274323;22;45390;-74
2023/04/05 09:00:41;;;;;;;;;36.50;31.25;;;;;14.86;40.75;101936.88;6245609;22;45642;-73
2023/04/05 09:03:14;;;;;;;;;33.00;28.75;;;;;15.25;42.93;101983.97;6274730;22;45342;-73
2023/04/05 09:05:43;;;;;;;;;42.75;31.25;;;;;15.19;37.46;101967.84;6274302;22;45358;-74
2023/04/05 09:08:08;;;;;;;;;33.50;29.50;;;;;15.17;35.78;101959.81;6273479;22;46708;-74
2023/04/05 09:10:33;;;;;;;;;35.75;29.25;;;;;15.36;41.22;101971.81;6245229;22;45364;-74
2023/04/05 09:12:59;;;;;;;;;32.75;30.00;;;;;15.55;39.06;101981.13;6274831;22;45248;-74
2023/04/05 09:15:25;;;;;;;;;39.25;31.00;;;;;15.55;34.87;101953.59;6273559;22;45435;-74
2023/04/05 09:17:53;;;;;;;;;32.50;29.75;;;;;15.79;39.11;101951.47;6274293;22;45808;-74
2023/04/05 09:20:19;;;;;;;;;37.25;28.50;;;;;16.16;35.22;101970.94;6273511;22;45636;-73
2023/04/05 09:22:45;;;;;;;;;33.00;30.25;;;;;16.27;39.21;101969.38;6274384;22;45714;-73
2023/04/05 09:25:41;;;;;;;;;31.25;29.75;;;;;16.33;37.24;101968.59;6274426;22;45478;-73
2023/04/05 09:28:07;;;;;;;;;29.75;26.00;;;;;16.41;33.19;101969.66;6275492;22;45686;-72
2023/04/05 09:30:35;;;;;;;;;30.25;29.25;;;;;16.49;35.31;101962.66;6274702;22;45375;-73
2023/04/05 09:33:02;;;;;;;;;34.75;29.75;;;;;16.58;32.20;101961.97;6275159;22;45359;-73
2023/04/05 09:35:29;;;;;;;;;23.00;22.00;;;;;16.52;37.10;101937.78;6275328;22;45322;-73
2023/04/05 09:37:57;;;;;;;;;30.50;27.00;;;;;16.72;32.05;101955.09;6274942;22;46231;-75
2023/04/05 09:40:23;;;;;;;;;26.25;24.00;;;;;16.85;36.20;101945.53;6276348;22;45679;-75
2023/04/05 09:42:50;;;;;;;;;26.50;22.50;;;;;17.17;36.98;101961.22;6278229;22;45324;-75
2023/04/05 09:45:17;;;;;;;;;33.00;29.00;;;;;17.23;33.51;101950.63;6277214;22;45249;-75
2023/04/05 09:47:53;;;;;;;;;36.50;30.00;;;;;17.43;33.03;101959.81;6277418;22;45230;-75
2023/04/05 09:50:19;;;;;;;;;30.50;28.75;;;;;17.57;30.89;101930.59;6277247;22;45218;-76
2023/04/05 09:52:45;;;;;;;;;31.25;27.50;;;;;17.95;32.84;101950.72;6249942;22;45229;-76
2023/04/05 09:55:11;;;;;;;;;36.00;29.75;;;;;18.11;33.57;101940.22;6274380;22;45260;-75
2023/04/05 09:57:42;;;;;;;;;30.67;28.00;;;;;18.33;30.21;101948.50;6277475;22;45897;-74
2023/04/05 10:00:19;;;;;;;;;30.67;28.00;;;;;18.34;34.69;101918.16;6277700;22;45244;-75
2023/04/05 10:02:48;;;;;;;;;34.33;30.00;;;;;18.56;29.66;101936.25;6277986;22;45189;-75
2023/04/05 10:05:14;;;;;;;;;28.33;27.33;;;;;18.65;29.85;101942.56;6277091;22;45570;-75
2023/04/05 10:07:41;;;;;;;;;30.00;26.00;;;;;18.58;28.25;101925.56;6277328;22;45985;-75
2023/04/05 10:10:08;;;;;;;;;36.67;29.00;;;;;18.80;33.71;101940.09;6274618;22;45306;-74
2023/04/05 10:12:40;;;;;;;;;30.33;25.67;;;;;18.86;28.59;101937.44;6249423;22;45305;-74
2023/04/05 10:15:06;;;;;;;;;35.67;28.67;;;;;19.01;32.24;101936.66;6249315;22;45930;-75
2023/04/05 10:17:48;;;;;;;;;30.00;26.00;;;;;18.89;31.06;101896.38;6277377;22;45483;-74
2023/04/05 10:20:16;;;;;;;;;26.33;22.33;;;;;19.15;28.68;101936.78;6276115;22;45287;-74
2023/04/05 10:22:41;;;;;;;;;29.33;23.67;;;;;19.26;28.00;101935.06;6277075;22;45219;-75
2023/04/05 10:25:26;;;;;;;;;29.33;22.67;;;;;19.26;27.05;101913.63;6275837;22;44710;-74
2023/04/05 10:28:03;;;;;;;;;23.67;22.33;;;;;19.33;30.58;101893.13;6277513;22;45244;-74
2023/04/05 10:30:35;;;;;;;;;29.00;24.67;;;;;19.62;29.53;101929.00;6275668;22;45211;-74
2023/04/05 10:33:11;;;;;;;;;25.33;22.00;;;;;19.83;28.71;101922.00;6277998;22;45173;-74
2023/04/05 10:35:49;;;;;;;;;25.00;23.33;;;;;20.07;29.81;101910.44;6277030;22;45236;-74
2023/04/05 10:38:27;;;;;;;;;26.33;24.67;;;;;20.11;30.71;101898.84;6277374;22;45367;-74
2023/04/05 10:40:58;;;;;;;;;29.33;26.67;;;;;20.10;29.63;101915.81;6277018;22;45550;-74
2023/04/05 10:43:25;;;;;;;;;21.00;19.00;;;;;20.06;27.46;101905.97;6277151;22;45335;-74
2023/04/05 10:45:53;;;;;;;;;25.33;21.67;;;;;20.12;28.40;101900.63;6249157;22;46237;-73
2023/04/05 10:48:40;;;;;;;;;26.67;24.00;;;;;20.23;26.60;101901.53;6277237;22;46061;-74
2023/04/05 10:51:06;;;;;;;;;30.67;23.00;;;;;20.19;26.41;101862.13;6276713;22;44680;-74
2023/04/05 10:53:32;;;;;;;;;26.33;23.67;;;;;20.35;24.50;101877.38;6278245;22;45580;-74
2023/04/05 10:56:00;;;;;;;;;24.00;24.00;;;;;20.31;25.26;101843.38;6275993;22;45398;-74
2023/04/05 10:58:26;;;;;;;;;22.67;21.33;;;;;20.56;26.27;101883.72;6275076;22;45450;-74
2023/04/05 11:00:53;;;;;;;;;24.00;18.33;;;;;20.58;24.97;101886.41;6274125;22;45278;-74
2023/04/05 11:03:40;;;;;;;;;26.67;22.67;;;;;20.71;28.35;101883.72;6274977;22;45331;-74
2023/04/05 11:06:17;;;;;;;;;20.00;18.67;;;;;20.83;28.41;101885.50;6274694;22;45536;-73
2023/04/05 11:08:45;;;;;;;;;28.33;24.00;;;;;20.92;25.57;101877.44;6274864;22;46029;-74
2023/04/05 11:11:15;;;;;;;;;18.67;13.67;;;;;20.98;27.30;101871.16;6273427;22;45394;-73
2023/04/05 11:14:34;;;;;;;;;15.67;15.67;;;;;20.76;27.26;101857.75;6274860;22;45332;-74
2023/04/05 11:16:59;;;;;;;;;20.67;20.33;;;;;20.76;25.64;101849.69;6249155;22;45693;-73
2023/04/05 11:19:47;;;;;;;;;22.33;21.00;;;;;21.09;27.10;101868.44;6245470;22;45508;-74
2023/04/05 11:22:23;;;;;;;;;19.00;18.33;;;;;21.13;23.84;101870.22;6274017;22;45380;-73
2023/04/05 11:24:57;;;;;;;;;24.67;20.00;;;;;21.00;26.25;101846.06;6273544;22;45610;-73
2023/04/05 11:27:36;;;;;;;;;21.67;20.00;;;;;20.96;23.21;101840.69;6273797;22;45375;-74
2023/04/05 11:30:04;;;;;;;;;25.33;21.67;;;;;21.19;26.49;101860.34;6273731;22;45398;-73
2023/04/05 11:32:41;;;;;;;;;21.00;20.33;;;;;21.28;23.79;101867.47;6274092;22;45229;-74
2023/04/05 11:35:12;;;;;;;;;24.00;22.00;;;;;21.35;23.80;101860.31;6274854;22;45358;-73
2023/04/05 11:38:00;;;;;;;;;19.33;17.33;;;;;21.52;25.93;101861.16;6275833;22;45350;-73
2023/04/05 11:40:32;;;;;;;;;22.33;21.67;;;;;21.70;23.54;101860.19;6274308;22;45164;-74
2023/04/05 11:43:09;;;;;;;;;23.33;22.67;;;;;21.81;25.52;101846.69;6276763;22;45225;-74
2023/04/05 11:45:40;;;;;;;;;20.33;19.33;;;;;21.96;24.04;101841.22;6275293;22;45157;-73
2023/04/05 11:48:08;;;;;;;;;19.00;18.67;;;;;22.09;20.76;101850.97;6276105;22;45150;-73
2023/04/05 11:50:36;;;;;;;;;22.33;19.67;;;;;22.18;25.14;101844.72;6276264;22;45386;-74
2023/04/05 11:53:11;;;;;;;;;19.67;19.67;;;;;22.05;23.74;101840.28;6276600;22;45248;-73
2023/04/05 11:55:39;;;;;;;;;18.00;17.00;;;;;21.93;21.22;101832.25;6247095;22;45330;-73
2023/04/05 11:58:22;;;;;;;;;22.67;19.00;;;;;22.01;21.81;101844.75;6249347;22;45209;-73
2023/04/05 12:01:08;;;;;;;;;19.67;14.67;;;;;22.18;22.91;101830.31;6246746;22;47054;-73
2023/04/05 12:03:35;;;;;;;;;18.00;17.00;;;;;22.22;20.26;101818.63;6276676;22;45236;-73
2023/04/05 12:06:03;;;;;;;;;19.33;17.00;;;;;22.37;22.95;101839.16;6276117;22;45214;-73
2023/04/05 12:08:48;;;;;;;;;18.67;17.00;;;;;22.19;19.86;101833.00;6276111;22;45410;-73
2023/04/05 12:11:14;;;;;;;;;24.00;21.00;;;;;22.14;20.54;101832.13;6275838;22;45391;-73
2023/04/05 12:13:39;;;;;;;;;17.33;16.67;;;;;22.24;21.58;101815.03;6247984;22;45300;-73
2023/04/05 12:16:07;;;;;;;;;21.33;17.00;;;;;22.33;20.56;101800.59;6276355;22;45154;-73
2023/04/05 12:18:35;;;;;;;;;19.00;17.67;;;;;22.38;20.12;101804.16;6276477;22;45203;-73
2023/04/05 12:21:02;;;;;;;;;22.67;18.33;;;;;22.55;20.10;101809.38;6275569;22;45287;-73
2023/04/05 12:23:27;;;;;;;;;18.33;17.33;;;;;22.76;20.78;101816.34;6276466;22;45162;-73
2023/04/05 12:25:55;;;;;;;;;21.00;17.67;;;;;22.71;20.62;101786.78;6275957;22;45134;-73
2023/04/05 12:28:20;;;;;;;;;19.00;17.67;;;;;22.88;22.33;101804.53;6248698;22;46022;-72
2023/04/05 12:30:53;;;;;;;;;13.00;11.33;;;;;22.90;23.23;101808.13;6275499;22;46155;-72
2023/04/05 12:33:44;;;;;;;;;37.00;33.33;;;;;22.91;22.35;101805.44;6276550;22;45184;-73
2023/04/05 12:36:12;;;;;;;;;27.67;26.67;;;;;23.08;20.04;101804.34;6269596;22;45379;-73
2023/04/05 12:38:39;;;;;;;;;17.33;17.33;;;;;23.20;19.32;101798.84;6276001;22;45196;-73
2023/04/05 12:41:04;;;;;;;;;20.00;17.00;;;;;23.32;22.99;101800.47;6247461;22;47045;-73
2023/04/05 12:43:40;;;;;;;;;17.67;16.33;;;;;23.39;22.73;101795.00;6276466;22;45178;-73
2023/04/05 12:46:09;;;;;;;;;15.33;13.33;;;;;23.41;21.42;101792.25;6275607;22;45579;-72
2023/04/05 12:48:36;;;;;;;;;16.67;16.33;;;;;23.22;19.84;101762.84;6275786;22;45454;-72
2023/04/05 12:51:03;;;;;;;;;25.00;22.00;;;;;23.20;20.98;101756.56;6248063;22;47188;-73
2023/04/05 12:53:29;;;;;;;;;15.00;15.00;;;;;23.28;20.74;101777.16;6274859;22;45185;-73
2023/04/05 12:55:55;;;;;;;;;13.00;12.67;;;;;23.27;19.36;101773.56;6275380;22;45183;-73
2023/04/05 12:58:35;;;;;;;;;11.67;11.00;;;;;23.34;18.87;101763.59;6276092;22;45533;-73
2023/04/05 13:01:00;;;;;;;;;18.67;14.67;;;;;23.50;17.76;101775.97;6275739;22;45904;-73
2023/04/05 13:03:26;;;;;;;;;12.00;12.00;;;;;23.56;17.93;101767.78;6275977;22;45240;-73
2023/04/05 13:05:51;;;;;;;;;20.00;16.67;;;;;23.17;16.89;101747.63;6248336;22;45406;-73
2023/04/05 13:08:17;;;;;;;;;15.67;14.67;;;;;23.04;17.70;101738.78;6248109;22;46021;-73
2023/04/05 13:10:45;;;;;;;;;16.33;15.00;;;;;23.29;18.35;101765.44;6275401;22;45240;-73
2023/04/05 13:13:10;;;;;;;;;15.67;14.00;;;;;23.51;19.15;101758.84;6276510;22;45266;-73
2023/04/05 13:15:35;;;;;;;;;15.33;14.33;;;;;23.55;21.59;101721.91;6275967;22;45266;-73
2023/04/05 13:18:01;;;;;;;;;17.67;16.00;;;;;23.69;20.93;101744.19;6275513;22;52364;-73
2023/04/05 13:20:26;;;;;;;;;20.33;16.67;;;;;23.63;19.06;101745.16;6275333;22;50353;-73
2023/04/05 13:22:51;;;;;;;;;17.67;17.67;;;;;23.61;18.52;101748.81;6247878;22;45335;-73
2023/04/05 13:25:17;;;;;;;;;14.67;14.00;;;;;23.12;18.85;101673.97;6275734;22;45271;-73
2023/04/05 13:27:42;;;;;;;;;17.67;14.67;;;;;23.56;17.55;101724.59;6276241;22;45335;-73
2023/04/05 13:30:08;;;;;;;;;13.33;11.33;;;;;23.57;20.66;101715.56;6274893;22;46251;-73
2023/04/05 13:32:34;;;;;;;;;21.67;15.33;;;;;23.60;17.37;101720.03;6275844;22;45269;-73
2023/04/05 13:34:59;;;;;;;;;15.67;14.67;;;;;23.31;20.40;101674.59;6247544;22;45231;-73
2023/04/05 13:37:25;;;;;;;;;19.67;17.00;;;;;23.50;20.46;101696.78;6275742;22;45202;-73
2023/04/05 13:39:50;;;;;;;;;17.00;14.00;;;;;23.54;18.65;101714.75;6275383;22;45970;-73
2023/04/05 13:42:15;;;;;;;;;18.67;14.33;;;;;23.64;19.23;101725.38;6275747;22;45290;-73
2023/04/05 13:44:41;;;;;;;;;23.33;15.67;;;;;23.62;18.30;101702.03;6275809;22;44642;-73
2023/04/05 13:47:07;;;;;;;;;21.00;16.67;;;;;23.71;17.61;101706.41;6275813;22;45575;-73
2023/04/05 13:49:32;;;;;;;;;20.67;20.00;;;;;23.84;19.56;101705.31;6273707;22;46149;-73
2023/04/05 13:51:58;;;;;;;;;16.00;15.00;;;;;23.98;20.53;101699.69;6275753;22;45203;-73
2023/04/05 13:54:23;;;;;;;;;20.00;17.00;;;;;23.89;18.57;101692.63;6275182;22;45233;-73
2023/04/05 13:56:48;;;;;;;;;22.33;17.33;;;;;23.93;17.93;101702.44;6275027;22;45156;-73
2023/04/05 13:59:15;;;;;;;;;17.67;16.00;;;;;24.00;20.63;101701.44;6246833;22;46368;-72
2023/04/05 14:01:46;;;;;;;;;21.67;20.33;;;;;23.64;20.81;101657.00;6275128;22;45214;-73
2023/04/05 14:04:12;;;;;;;;;20.33;19.67;;;;;23.28;19.19;101615.31;6275636;22;45227;-73
2023/04/05 14:06:37;;;;;;;;;20.00;17.33;;;;;23.52;19.29;101651.78;6275448;22;45381;-73
2023/04/05 14:09:03;;;;;;;;;21.00;21.00;;;;;23.73;20.50;101699.19;6275855;22;45234;-73
2023/04/05 14:11:29;;;;;;;;;18.67;17.67;;;;;23.60;19.79;101675.03;6276472;22;45293;-73
2023/04/05 14:13:54;;;;;;;;;24.00;18.67;;;;;23.63;18.63;101688.47;6249080;22;45410;-73
2023/04/05 14:16:20;;;;;;;;;20.33;20.33;;;;;23.41;20.46;101644.78;6248690;22;45189;-73
2023/04/05 14:18:45;;;;;;;;;20.33;18.67;;;;;23.36;19.79;101645.75;6276248;22;46005;-73
2023/04/05 14:21:10;;;;;;;;;18.67;18.67;;;;;22.19;20.01;101441.63;6276633;22;45206;-73
2023/04/05 14:23:36;;;;;;;;;21.00;15.67;;;;;23.46;18.50;101677.06;6277224;22;45161;-73
2023/04/05 14:26:02;;;;;;;;;22.67;21.00;;;;;23.37;18.70;101670.00;6276011;22;45287;-73
2023/04/05 14:28:27;;;;;;;;;23.67;21.00;;;;;23.42;18.58;101643.84;6277024;22;45229;-72
2023/04/05 14:30:52;;;;;;;;;21.67;17.33;;;;;23.42;20.22;101627.66;6248166;22;45261;-73
2023/04/05 14:33:18;;;;;;;;;16.67;15.00;;;;;23.33;19.90;101635.91;6277232;22;45415;-73
2023/04/05 14:35:43;;;;;;;;;20.33;14.00;;;;;23.32;20.55;101634.09;6276526;22;45373;-73
2023/04/05 14:38:08;;;;;;;;;24.67;21.00;;;;;22.97;20.47;101581.56;6249074;22;46016;-73
2023/04/05 14:40:34;;;;;;;;;22.00;18.67;;;;;23.29;19.42;101647.63;6276243;22;45302;-73
2023/04/05 14:42:59;;;;;;;;;21.00;20.33;;;;;23.14;18.61;101639.78;6276714;22;45260;-73
2023/04/05 14:45:28;;;;;;;;;26.67;19.33;;;;;23.10;19.49;101638.91;6276621;22;45236;-73
2023/04/05 14:47:54;;;;;;;;;22.67;19.33;;;;;23.09;19.28;101626.34;6276654;22;45366;-73
2023/04/05 14:50:19;;;;;;;;;20.33;16.33;;;;;23.09;19.21;101631.75;6276620;22;45192;-73
2023/04/05 14:52:44;;;;;;;;;20.67;19.00;;;;;22.68;19.76;101557.66;6277303;22;45078;-73
2023/04/05 14:55:12;;;;;;;;;25.33;20.33;;;;;23.05;19.50;101624.63;6247883;22;45951;-73
2023/04/05 14:57:41;;;;;;;;;24.67;17.33;;;;;23.05;19.87;101624.63;6277019;22;46023;-73
2023/04/05 15:00:08;;;;;;;;;17.33;17.00;;;;;23.06;19.63;101612.91;6276362;22;45255;-73
2023/04/05 15:02:37;;;;;;;;;22.67;19.00;;;;;22.62;20.63;101589.22;6277046;22;45102;-73
2023/04/05 15:05:04;;;;;;;;;15.67;15.33;;;;;22.32;19.36;101621.91;6276115;22;45359;-74
2023/04/05 15:07:29;;;;;;;;;18.33;17.33;;;;;22.25;21.48;101611.22;6248514;22;47545;-73
2023/04/05 15:09:55;;;;;;;;;16.67;13.33;;;;;22.16;18.95;101611.28;6276086;22;45280;-73
2023/04/05 15:12:20;;;;;;;;;15.00;14.67;;;;;22.08;19.19;101579.94;6249119;22;45321;-73
2023/04/05 15:14:47;;;;;;;;;16.67;16.00;;;;;22.23;20.69;101583.41;6248181;22;45589;-73
2023/04/05 15:17:13;;;;;;;;;16.00;14.67;;;;;22.30;19.56;101588.69;6276719;22;45263;-73
2023/04/05 15:19:38;;;;;;;;;17.00;16.33;;;;;22.19;18.54;101598.72;6276625;22;45168;-73
2023/04/05 15:22:05;;;;;;;;;18.00;14.00;;;;;22.11;18.24;101587.09;6276869;22;45210;-73
2023/04/05 15:24:30;;;;;;;;;16.00;15.33;;;;;22.13;18.71;101587.97;6276255;22;45370;-73
2023/04/05 15:27:00;;;;;;;;;16.00;11.00;;;;;21.82;19.07;101573.94;6276442;22;45201;-73
2023/04/05 15:29:26;;;;;;;;;14.00;13.67;;;;;21.86;20.30;101589.16;6276438;22;45325;-73
2023/04/05 15:31:52;;;;;;;;;13.67;13.67;;;;;21.82;20.76;101590.97;6276625;22;45228;-73
2023/04/05 15:34:17;;;;;;;;;16.33;14.00;;;;;21.73;20.51;101588.34;6248111;22;47039;-73
2023/04/05 15:36:42;;;;;;;;;17.33;15.33;;;;;21.70;18.94;101580.31;6243400;22;46635;-73
2023/04/05 15:39:08;;;;;;;;;16.67;11.67;;;;;21.42;18.76;101566.22;6246698;22;45520;-73
2023/04/05 15:41:33;;;;;;;;;9.33;9.33;;;;;21.38;19.65;101570.72;6276380;22;45839;-73
2023/04/05 15:43:59;;;;;;;;;16.33;13.67;;;;;21.36;19.98;101569.81;6276545;22;45177;-74
2023/04/05 15:46:25;;;;;;;;;18.33;16.67;;;;;21.26;19.09;101561.81;6275842;22;46105;-73
2023/04/05 15:48:50;;;;;;;;;14.00;13.00;;;;;21.32;20.52;101569.88;6276581;22;45166;-73
2023/04/05 15:51:15;;;;;;;;;12.67;12.67;;;;;21.29;18.12;101567.19;6276732;22;45244;-73
2023/04/05 15:53:41;;;;;;;;;9.00;8.00;;;;;21.15;19.15;101570.00;6277182;22;45185;-72
2023/04/05 15:56:06;;;;;;;;;24.67;24.67;;;;;20.84;19.86;101520.88;6275559;22;45375;-72
2023/04/05 15:58:31;;;;;;;;;15.00;15.00;;;;;21.13;20.82;101563.72;6275345;22;45243;-73
2023/04/05 16:00:57;;;;;;;;;15.67;15.33;;;;;21.15;18.83;101561.91;6248990;22;45286;-72
2023/04/05 16:03:22;;;;;;;;;16.00;13.67;;;;;20.90;18.57;101529.81;6276630;22;45332;-74
2023/04/05 16:05:48;;;;;;;;;10.33;10.00;;;;;20.98;19.90;101553.97;6274366;22;45942;-72
2023/04/05 16:08:13;;;;;;;;;12.67;11.33;;;;;20.93;19.81;101556.69;6276639;22;45371;-72
2023/04/05 16:10:38;;;;;;;;;12.00;11.00;;;;;20.94;18.65;101568.31;6276326;22;45299;-72
2023/04/05 16:13:04;;;;;;;;;14.00;11.67;;;;;20.69;19.72;101536.22;6276279;22;45209;-72
2023/04/05 16:15:31;;;;;;;;;11.00;10.00;;;;;20.60;19.69;101527.31;6276461;22;45487;-72
2023/04/05 16:17:57;;;;;;;;;10.67;10.67;;;;;20.59;19.28;101541.66;6276327;22;45294;-73
2023/04/05 16:20:22;;;;;;;;;15.33;11.67;;;;;20.61;18.62;101553.28;6274640;22;45383;-73
2023/04/05 16:22:47;;;;;;;;;13.00;12.00;;;;;20.34;20.16;101521.16;6276874;22;45157;-72
2023/04/05 16:25:13;;;;;;;;;14.33;13.33;;;;;20.33;19.84;101551.59;6276430;22;46114;-72
2023/04/05 16:27:38;;;;;;;;;14.00;11.67;;;;;20.17;19.44;101540.91;6276536;22;45146;-72
2023/04/05 16:30:04;;;;;;;;;12.33;10.00;;;;;20.19;20.61;101552.50;6249351;22;45739;-72
2023/04/05 16:32:30;;;;;;;;;13.00;10.33;;;;;20.11;20.43;101548.09;6247775;22;45481;-72
2023/04/05 16:34:55;;;;;;;;;12.67;11.00;;;;;19.74;19.57;101524.91;6275683;22;47023;-73
2023/04/05 16:37:21;;;;;;;;;14.33;11.67;;;;;19.83;20.84;101539.22;6277042;22;45193;-73
2023/04/05 16:39:46;;;;;;;;;13.00;11.00;;;;;19.56;20.96;101513.28;6276265;22;45149;-73
2023/04/05 16:42:11;;;;;;;;;10.67;10.67;;;;;19.42;20.72;101523.13;6276164;22;45369;-72
2023/04/05 16:44:37;;;;;;;;;12.67;12.00;;;;;19.33;20.68;101510.63;6277075;22;45213;-72
2023/04/05 16:47:02;;;;;;;;;10.67;9.33;;;;;19.49;21.74;101548.16;6277777;22;45205;-73
2023/04/05 16:49:27;;;;;;;;;15.67;10.33;;;;;19.23;21.70;101509.72;6277227;22;45243;-72
2023/04/05 16:51:53;;;;;;;;;15.33;11.00;;;;;19.21;22.20;101510.59;6276573;22;45446;-72
2023/04/05 16:54:18;;;;;;;;;14.33;12.67;;;;;19.27;21.69;101539.19;6277043;22;45963;-72
2023/04/05 16:56:44;;;;;;;;;11.00;9.67;;;;;18.93;21.32;101494.53;6274850;22;45334;-73
2023/04/05 16:59:09;;;;;;;;;14.67;12.33;;;;;18.94;21.75;101504.34;6276354;22;45275;-73
2023/04/05 17:01:35;;;;;;;;;10.00;7.33;;;;;18.69;21.16;101487.31;6247446;22;45617;-73
2023/04/05 17:04:00;;;;;;;;;12.33;8.33;;;;;18.63;22.33;101497.13;6276169;22;45235;-73
2023/04/05 17:06:26;;;;;;;;;10.67;8.33;;;;;18.65;21.78;101527.47;6275883;22;45570;-73
2023/04/05 17:08:52;;;;;;;;;11.67;10.33;;;;;18.48;22.42;101533.66;6246821;22;45189;-72